createdAt,value
2023-04-16T00:00:00.236Z,139
2023-04-16T00:10:00.224Z,121
2023-04-16T00:20:00.219Z,154
2023-04-16T00:30:00.261Z,129
2023-04-16T00:40:00.324Z,97
2023-04-16T00:50:00.249Z,71
2023-04-16T01:00:00.262Z,130
2023-04-16T01:10:00.286Z,104
2023-04-16T01:20:00.338Z,84
2023-04-16T01:30:00.228Z,129
2023-04-16T01:40:00.244Z,120
2023-04-16T01:50:00.278Z,77
2023-04-16T02:00:00.278Z,68
2023-04-16T02:10:00.236Z,157
2023-04-16T02:20:00.309Z,130
2023-04-16T02:30:00.255Z,129
2023-04-16T02:40:00.467Z,165
2023-04-16T02:50:00.302Z,126
2023-04-16T03:00:00.286Z,119
2023-04-16T03:10:00.237Z,142
2023-04-16T03:20:00.311Z,145
2023-04-16T03:30:00.391Z,106
2023-04-16T03:40:00.289Z,125
2023-04-16T03:50:00.256Z,145
2023-04-16T04:00:00.250Z,144
2023-04-16T04:10:00.248Z,142
2023-04-16T04:20:01.794Z,111
2023-04-16T04:30:00.265Z,142
2023-04-16T04:40:00.260Z,158
2023-04-16T04:50:00.245Z,157
2023-04-16T05:00:00.245Z,125
2023-04-16T05:10:00.241Z,146
2023-04-16T05:20:00.241Z,189
2023-04-16T05:30:00.259Z,215
2023-04-16T05:40:00.280Z,176
2023-04-16T05:50:00.259Z,140
2023-04-16T06:00:00.269Z,199
2023-04-16T06:10:00.220Z,237
2023-04-16T06:20:00.371Z,209
2023-04-16T06:30:00.247Z,179
2023-04-16T06:40:00.228Z,157
2023-04-16T06:50:00.233Z,151
2023-04-16T07:00:00.299Z,100
2023-04-16T07:10:00.242Z,92
2023-04-16T07:20:00.233Z,74
2023-04-16T07:30:00.256Z,191
2023-04-16T07:40:00.248Z,28
2023-04-16T07:50:00.254Z,11
2023-04-16T08:00:00.258Z,9
2023-04-16T08:10:00.232Z,6
2023-04-16T08:20:00.245Z,5
2023-04-16T08:30:00.280Z,5
2023-04-16T08:40:00.238Z,5
2023-04-16T08:50:00.239Z,4
2023-04-16T09:00:00.236Z,5
2023-04-16T09:10:00.231Z,4
2023-04-16T09:20:00.233Z,5
2023-04-16T09:30:00.232Z,11
2023-04-16T09:40:00.261Z,18
2023-04-16T09:50:00.296Z,13
2023-04-16T10:00:00.229Z,13
2023-04-16T10:10:00.273Z,16
2023-04-16T10:20:00.270Z,12
2023-04-16T10:30:00.273Z,13
2023-04-16T10:40:00.310Z,21
2023-04-16T10:50:00.247Z,10
2023-04-16T11:00:00.253Z,10
2023-04-16T11:10:00.361Z,5
2023-04-16T11:20:00.284Z,4
2023-04-16T11:30:00.479Z,7
2023-04-16T11:40:00.222Z,5
2023-04-16T11:50:00.221Z,10
2023-04-16T12:00:01.697Z,6
2023-04-16T12:10:00.251Z,4
2023-04-16T12:20:00.243Z,13
2023-04-16T12:30:00.280Z,19
2023-04-16T12:40:00.232Z,22
2023-04-16T12:50:00.227Z,12
2023-04-16T13:00:00.345Z,14
2023-04-16T13:10:00.292Z,22
2023-04-16T13:20:00.240Z,22
2023-04-16T13:30:00.303Z,16
2023-04-16T13:40:00.230Z,13
2023-04-16T13:50:00.246Z,13
2023-04-16T14:00:00.254Z,36
2023-04-16T14:10:00.271Z,28
2023-04-16T14:20:00.245Z,11
2023-04-16T14:30:00.244Z,10
2023-04-16T14:40:00.243Z,22
2023-04-16T14:50:00.221Z,23
2023-04-16T15:00:00.277Z,13
2023-04-16T15:10:00.321Z,9
2023-04-16T15:20:00.252Z,11
2023-04-16T15:30:00.325Z,16
2023-04-16T15:40:00.244Z,22
2023-04-16T15:50:00.280Z,17
2023-04-16T16:00:07.064Z,19
2023-04-16T16:10:00.304Z,9
2023-04-16T16:20:00.272Z,8
2023-04-16T16:30:00.306Z,13
2023-04-16T16:40:00.297Z,24
2023-04-16T16:50:02.725Z,11
2023-04-16T17:00:00.300Z,9
2023-04-16T17:10:02.566Z,10
2023-04-16T17:20:00.237Z,17
2023-04-16T17:30:00.278Z,31
2023-04-16T17:40:00.220Z,22
2023-04-16T17:50:00.226Z,21
2023-04-16T18:00:00.232Z,20
2023-04-16T18:10:00.375Z,18
2023-04-16T18:20:00.221Z,16
2023-04-16T18:30:00.244Z,15
2023-04-16T18:40:00.211Z,15
2023-04-16T18:50:00.222Z,11
2023-04-16T19:00:00.249Z,8
2023-04-16T19:10:00.233Z,8
2023-04-16T19:20:00.226Z,10
2023-04-16T19:30:00.263Z,8
2023-04-16T19:40:00.219Z,6
2023-04-16T19:50:02.277Z,6
2023-04-16T20:00:00.330Z,6
2023-04-16T20:10:00.239Z,84
2023-04-16T20:20:00.249Z,65
2023-04-16T20:30:00.232Z,238
2023-04-16T20:40:00.250Z,256
2023-04-16T20:50:00.212Z,263
2023-04-16T21:00:00.239Z,270
2023-04-16T21:10:00.260Z,224
2023-04-16T21:20:00.231Z,216
2023-04-16T21:30:00.288Z,222
2023-04-16T21:40:00.279Z,312
2023-04-16T21:50:00.230Z,60
2023-04-16T22:00:00.303Z,91
2023-04-16T22:10:00.238Z,231
2023-04-16T22:20:00.240Z,243
2023-04-16T22:30:00.248Z,289
2023-04-16T22:40:00.256Z,264
2023-04-16T22:50:00.222Z,262
2023-04-16T23:00:00.293Z,271
2023-04-16T23:10:00.233Z,262
2023-04-16T23:20:00.219Z,235
2023-04-16T23:30:00.260Z,210
2023-04-16T23:40:00.217Z,260
2023-04-16T23:50:00.248Z,226
